Time;durP1;ratioP1;P1;durP2;ratioP2;P2;SDS_P1;SDS_P2;PMS_P1;PMS_P2;Temp;Humidity;BMP_temperature;BMP_pressure;BME280_temperature;BME280_humidity;BME280_pressure;Samples;Min_cycle;Max_cycle;Signal;HPM_P1;HPM_P2
2024/01/14 00:02:18;;;;;;;13.65;5.70;;;3.10;99.90;;;;;;5055534;28;20033;-74
2024/01/14 00:04:44;;;;;;;43.28;16.05;;;3.10;99.90;;;;;;5055226;28;20024;-73
2024/01/14 00:07:10;;;;;;;38.78;14.48;;;3.00;99.90;;;;;;5055132;28;20029;-73
2024/01/14 00:09:36;;;;;;;46.63;21.15;;;3.00;99.90;;;;;;5037589;28;20047;-76
2024/01/14 00:12:04;;;;;;;16.42;7.45;;;3.00;99.90;;;;;;5039597;28;20104;-74
2024/01/14 00:14:30;;;;;;;14.25;10.85;;;3.00;99.90;;;;;;5055187;28;20037;-73
2024/01/14 00:16:55;;;;;;;38.00;16.05;;;3.10;99.90;;;;;;5054933;28;20385;-73
2024/01/14 00:19:21;;;;;;;21.67;10.70;;;3.10;99.90;;;;;;5037246;28;20393;-74
2024/01/14 00:21:47;;;;;;;41.72;17.33;;;3.10;99.90;;;;;;5055171;28;20029;-73
2024/01/14 00:24:13;;;;;;;36.63;15.80;;;3.00;99.90;;;;;;5054761;28;20449;-73
2024/01/14 00:26:38;;;;;;;31.30;11.90;;;3.10;99.90;;;;;;5036797;28;20029;-73
2024/01/14 00:29:04;;;;;;;39.35;13.23;;;3.10;99.90;;;;;;5054546;28;20029;-73
2024/01/14 00:31:30;;;;;;;30.90;13.02;;;3.00;99.90;;;;;;5054985;28;20047;-74
2024/01/14 00:33:56;;;;;;;4.25;3.85;;;3.00;99.90;;;;;;5054787;28;20013;-74
2024/01/14 00:36:21;;;;;;;7.72;4.85;;;3.10;99.90;;;;;;5054572;28;20429;-73
2024/01/14 00:38:47;;;;;;;7.00;4.20;;;3.00;99.90;;;;;;5054538;28;20021;-74
2024/01/14 00:41:13;;;;;;;20.52;8.27;;;3.00;99.90;;;;;;5054364;28;20389;-73
2024/01/14 00:43:39;;;;;;;8.60;5.35;;;3.10;99.90;;;;;;5036724;28;20096;-73
2024/01/14 00:46:04;;;;;;;36.60;16.35;;;3.00;99.90;;;;;;5054329;28;20021;-74
2024/01/14 00:48:31;;;;;;;10.18;6.85;;;2.90;99.90;;;;;;5054496;28;20389;-73
2024/01/14 00:50:57;;;;;;;32.78;11.13;;;2.90;99.90;;;;;;5036368;28;20028;-74
2024/01/14 00:53:23;;;;;;;21.17;9.60;;;2.90;99.90;;;;;;5036372;28;20024;-73
2024/01/14 00:55:50;;;;;;;25.92;11.70;;;3.10;99.90;;;;;;5054186;28;20115;-73
2024/01/14 00:58:16;;;;;;;4.63;3.25;;;2.90;99.90;;;;;;5054022;28;20147;-73
2024/01/14 01:00:43;;;;;;;17.10;8.13;;;2.90;99.90;;;;;;5054390;28;20033;-73
2024/01/14 01:03:08;;;;;;;21.23;9.98;;;2.90;99.90;;;;;;5054140;28;20036;-73
2024/01/14 01:05:34;;;;;;;41.20;19.48;;;2.80;99.90;;;;;;5054186;28;20370;-73
2024/01/14 01:08:01;;;;;;;54.50;17.13;;;2.80;99.90;;;;;;5054060;28;20061;-73
2024/01/14 01:10:27;;;;;;;52.58;17.50;;;2.90;99.90;;;;;;5053722;28;20029;-73
2024/01/14 01:12:53;;;;;;;29.40;13.73;;;2.90;99.90;;;;;;5054209;28;20075;-73
2024/01/14 01:15:18;;;;;;;21.65;7.05;;;2.80;99.90;;;;;;5053859;28;20028;-74
2024/01/14 01:17:44;;;;;;;6.15;4.00;;;2.90;99.90;;;;;;5053410;28;20033;-74
2024/01/14 01:20:11;;;;;;;29.45;11.98;;;2.90;99.90;;;;;;5053629;28;20049;-73
2024/01/14 01:22:37;;;;;;;13.52;6.13;;;2.90;99.90;;;;;;5054053;28;20021;-74
2024/01/14 01:25:03;;;;;;;8.15;3.33;;;3.00;99.90;;;;;;5052061;28;20043;-74
2024/01/14 01:27:29;;;;;;;5.43;4.57;;;2.90;99.90;;;;;;5053844;28;20095;-73
2024/01/14 01:29:58;;;;;;;15.88;5.72;;;3.10;99.90;;;;;;5053671;28;20040;-73
2024/01/14 01:32:24;;;;;;;13.63;6.03;;;3.10;99.90;;;;;;5035628;28;20032;-73
2024/01/14 01:34:50;;;;;;;4.38;2.65;;;3.00;99.90;;;;;;5053620;28;20029;-73
2024/01/14 01:37:16;;;;;;;1.38;0.60;;;2.90;99.90;;;;;;5053582;28;20047;-73
2024/01/14 01:39:41;;;;;;;16.65;6.82;;;2.90;99.90;;;;;;5053236;28;20033;-73
2024/01/14 01:42:07;;;;;;;37.28;14.20;;;3.00;99.90;;;;;;5035598;28;20033;-73
2024/01/14 01:44:33;;;;;;;32.38;13.52;;;3.00;99.90;;;;;;5053241;28;20024;-74
2024/01/14 01:47:00;;;;;;;29.40;10.15;;;2.90;99.90;;;;;;5035509;28;20075;-74
2024/01/14 01:49:27;;;;;;;10.13;5.45;;;2.80;99.90;;;;;;5053234;28;20041;-73
2024/01/14 01:51:54;;;;;;;9.30;4.68;;;2.80;99.90;;;;;;5053708;28;20083;-73
2024/01/14 01:54:26;;;;;;;35.67;11.60;;;2.80;99.90;;;;;;5034889;28;20048;-73
2024/01/14 01:56:53;;;;;;;32.47;15.57;;;2.80;99.90;;;;;;5053317;28;20025;-74
2024/01/14 01:59:20;;;;;;;8.43;4.00;;;2.80;99.90;;;;;;5035568;28;20225;-74
2024/01/14 02:01:47;;;;;;;13.80;7.45;;;2.70;99.90;;;;;;5053150;28;20031;-73
2024/01/14 02:04:14;;;;;;;17.88;7.03;;;2.80;99.90;;;;;;5053207;28;20035;-73
2024/01/14 02:06:41;;;;;;;22.73;11.60;;;2.80;99.90;;;;;;5035122;28;20041;-73
2024/01/14 02:09:09;;;;;;;12.70;5.70;;;2.70;99.90;;;;;;5052649;28;20084;-73
2024/01/14 02:11:36;;;;;;;13.82;8.13;;;2.80;99.90;;;;;;5034881;28;20473;-75
2024/01/14 02:14:06;;;;;;;21.77;9.45;;;2.80;99.90;;;;;;5053019;28;20025;-72
2024/01/14 02:16:32;;;;;;;31.52;11.63;;;2.70;99.90;;;;;;5034676;28;20061;-73
2024/01/14 02:18:58;;;;;;;26.58;10.75;;;2.70;99.90;;;;;;5052941;28;20036;-72
2024/01/14 02:21:32;;;;;;;7.75;3.50;;;2.80;99.90;;;;;;5052676;28;20032;-73
2024/01/14 02:24:32;;;;;;;2.78;2.60;;;2.90;99.90;;;;;;5052658;28;20037;-75
2024/01/14 02:26:58;;;;;;;13.60;4.22;;;2.90;99.90;;;;;;5047569;28;20552;-75
2024/01/14 02:29:27;;;;;;;12.25;4.85;;;2.80;99.90;;;;;;5052128;28;20029;-74
2024/01/14 02:31:53;;;;;;;3.92;3.40;;;2.80;99.90;;;;;;5034888;28;20108;-75
2024/01/14 02:34:19;;;;;;;12.05;6.55;;;2.70;99.90;;;;;;5052655;28;20017;-74
2024/01/14 02:36:45;;;;;;;51.55;17.38;;;2.70;99.90;;;;;;5052279;28;20040;-74
2024/01/14 02:39:11;;;;;;;16.83;8.07;;;2.70;99.90;;;;;;5052599;28;20117;-75
2024/01/14 02:41:37;;;;;;;18.10;10.77;;;2.60;99.90;;;;;;5052612;28;20118;-75
2024/01/14 02:44:03;;;;;;;18.17;9.35;;;2.70;99.90;;;;;;5052697;28;20146;-75
2024/01/14 02:46:30;;;;;;;15.38;5.78;;;2.70;99.90;;;;;;5052639;28;20045;-75
2024/01/14 02:48:57;;;;;;;17.80;4.40;;;2.70;99.90;;;;;;5052494;28;20041;-75
2024/01/14 02:51:23;;;;;;;26.67;10.10;;;2.70;99.90;;;;;;5034271;28;20032;-76
2024/01/14 02:53:49;;;;;;;7.15;4.85;;;2.60;99.90;;;;;;5052622;28;20108;-73
2024/01/14 02:56:15;;;;;;;10.05;6.07;;;2.60;99.90;;;;;;5052273;28;20075;-73
2024/01/14 02:58:41;;;;;;;6.35;3.72;;;2.70;99.90;;;;;;5052269;28;20385;-75
2024/01/14 03:01:07;;;;;;;9.38;4.60;;;2.80;99.90;;;;;;5052248;28;20025;-75
2024/01/14 03:03:33;;;;;;;8.02;4.32;;;2.80;99.90;;;;;;5050308;28;20555;-75
2024/01/14 03:05:59;;;;;;;18.25;7.20;;;2.70;99.90;;;;;;5034244;28;20025;-75
2024/01/14 03:08:24;;;;;;;39.80;15.75;;;2.70;99.90;;;;;;5052382;28;20032;-75
2024/01/14 03:10:50;;;;;;;24.48;10.35;;;2.60;99.90;;;;;;5052110;28;20389;-75
2024/01/14 03:13:16;;;;;;;9.38;5.43;;;2.60;99.90;;;;;;5051136;28;20044;-75
2024/01/14 03:15:45;;;;;;;2.00;1.80;;;2.70;99.90;;;;;;5052372;28;20488;-75
2024/01/14 03:18:15;;;;;;;15.65;8.57;;;2.70;99.90;;;;;;5051948;28;20483;-75
2024/01/14 03:20:42;;;;;;;3.65;3.35;;;2.70;99.90;;;;;;5052074;28;20355;-75
2024/01/14 03:23:08;;;;;;;12.45;6.07;;;2.80;99.90;;;;;;5052014;28;20021;-75
2024/01/14 03:25:34;;;;;;;19.25;7.43;;;2.80;99.90;;;;;;5052347;28;20032;-75
2024/01/14 03:27:59;;;;;;;22.08;7.35;;;2.80;99.90;;;;;;5051969;28;20068;-75
2024/01/14 03:30:29;;;;;;;4.90;4.35;;;2.70;99.90;;;;;;5052182;28;20036;-75
2024/01/14 03:32:55;;;;;;;23.98;10.48;;;2.80;99.90;;;;;;5051914;28;20436;-75
2024/01/14 03:35:21;;;;;;;7.90;3.70;;;2.70;99.90;;;;;;5051874;28;20025;-75
2024/01/14 03:37:46;;;;;;;15.35;6.97;;;2.70;99.90;;;;;;5051913;28;20108;-75
2024/01/14 03:40:13;;;;;;;9.75;5.43;;;2.80;99.90;;;;;;5053402;28;20024;-75
2024/01/14 03:42:39;;;;;;;33.10;14.60;;;2.70;99.90;;;;;;5055698;28;20017;-75
2024/01/14 03:45:05;;;;;;;28.70;13.77;;;2.60;99.90;;;;;;5054221;28;20021;-75
2024/01/14 03:47:31;;;;;;;8.23;5.38;;;2.60;99.90;;;;;;5055594;28;20017;-75
2024/01/14 03:49:57;;;;;;;16.23;7.03;;;2.50;99.90;;;;;;5055431;28;20511;-75
2024/01/14 03:52:23;;;;;;;30.67;14.20;;;2.50;99.90;;;;;;5055507;28;20013;-75
2024/01/14 03:54:50;;;;;;;7.63;4.57;;;2.50;99.90;;;;;;5055614;28;20028;-76
2024/01/14 03:57:18;;;;;;;5.57;2.53;;;2.60;99.90;;;;;;5055356;28;20025;-75
2024/01/14 03:59:44;;;;;;;11.50;6.50;;;2.60;99.90;;;;;;5055453;28;20386;-75
2024/01/14 04:02:09;;;;;;;42.83;18.67;;;2.50;99.90;;;;;;5055128;28;20029;-75
2024/01/14 04:04:35;;;;;;;3.95;2.97;;;2.50;99.90;;;;;;5055328;28;20086;-75
2024/01/14 04:07:01;;;;;;;10.52;5.47;;;2.50;99.90;;;;;;5055112;28;20138;-75
2024/01/14 04:09:28;;;;;;;6.75;3.47;;;2.60;99.90;;;;;;5037553;28;20025;-73
2024/01/14 04:11:54;;;;;;;7.93;5.57;;;2.60;99.90;;;;;;5055301;28;20043;-73
2024/01/14 04:14:19;;;;;;;23.00;5.38;;;2.60;99.90;;;;;;5054928;28;20037;-76
2024/01/14 04:16:45;;;;;;;27.02;10.68;;;2.70;99.90;;;;;;5055010;28;20033;-75
2024/01/14 04:19:11;;;;;;;1.20;1.13;;;2.80;99.90;;;;;;5054555;28;20021;-75
2024/01/14 04:21:37;;;;;;;9.02;4.78;;;2.80;99.90;;;;;;5037511;28;20040;-75
2024/01/14 04:24:06;;;;;;;5.38;3.63;;;2.80;99.90;;;;;;5054999;28;20031;-75
2024/01/14 04:26:31;;;;;;;0.25;0.25;;;2.70;99.90;;;;;;5054709;28;20013;-75
2024/01/14 04:28:58;;;;;;;1.88;1.45;;;2.60;99.90;;;;;;5054752;28;20625;-75
2024/01/14 04:31:24;;;;;;;26.58;9.27;;;2.60;99.90;;;;;;5054744;28;20132;-75
2024/01/14 04:33:51;;;;;;;3.92;1.98;;;2.70;99.90;;;;;;5054530;28;20377;-75
2024/01/14 04:36:16;;;;;;;9.63;3.58;;;2.70;99.90;;;;;;5036945;28;20025;-75
2024/01/14 04:38:43;;;;;;;11.82;5.50;;;2.70;99.90;;;;;;5036673;28;20033;-75
2024/01/14 04:41:08;;;;;;;27.75;10.85;;;2.60;99.90;;;;;;5036969;28;20017;-75
2024/01/14 04:43:36;;;;;;;6.65;3.90;;;2.70;99.90;;;;;;5054505;28;20112;-75
2024/01/14 04:46:02;;;;;;;9.00;5.85;;;2.70;99.90;;;;;;5054529;28;20024;-75
2024/01/14 04:48:32;;;;;;;19.90;4.45;;;2.70;99.90;;;;;;5036721;28;20033;-74
2024/01/14 04:50:58;;;;;;;30.02;8.32;;;2.90;99.90;;;;;;5019603;28;20396;-75
2024/01/14 04:53:23;;;;;;;20.33;6.85;;;3.00;99.90;;;;;;5035806;28;20115;-75
2024/01/14 04:55:49;;;;;;;16.75;7.05;;;2.90;99.90;;;;;;5054516;28;20029;-75
2024/01/14 04:58:18;;;;;;;12.32;6.00;;;2.70;99.90;;;;;;5054339;28;20072;-75
2024/01/14 05:00:44;;;;;;;17.83;7.78;;;2.80;99.90;;;;;;5054433;28;20071;-75
2024/01/14 05:03:10;;;;;;;8.20;3.20;;;2.70;99.90;;;;;;5052377;28;20113;-75
2024/01/14 05:05:36;;;;;;;23.80;7.47;;;2.70;99.90;;;;;;5054175;28;20032;-75
2024/01/14 05:08:02;;;;;;;24.67;13.27;;;2.60;99.90;;;;;;5054006;28;20470;-75
2024/01/14 05:10:28;;;;;;;19.45;9.35;;;2.60;99.90;;;;;;5052510;28;20041;-75
2024/01/14 05:12:54;;;;;;;21.23;8.98;;;2.60;99.90;;;;;;5053959;28;20546;-75
2024/01/14 05:15:20;;;;;;;8.65;3.13;;;2.60;99.90;;;;;;5053963;28;20061;-75
2024/01/14 05:17:46;;;;;;;15.50;8.18;;;2.80;99.90;;;;;;5053640;28;20060;-75
2024/01/14 05:20:12;;;;;;;5.47;3.05;;;2.80;99.90;;;;;;5053763;28;20069;-75
2024/01/14 05:22:38;;;;;;;20.30;8.77;;;2.70;99.90;;;;;;5054001;28;20091;-75
2024/01/14 05:25:04;;;;;;;6.28;5.65;;;2.80;99.90;;;;;;5053631;28;20021;-75
2024/01/14 05:27:30;;;;;;;8.63;4.55;;;2.80;99.90;;;;;;5053861;28;20036;-75
2024/01/14 05:29:56;;;;;;;5.38;0.98;;;2.90;99.90;;;;;;5035556;28;20029;-75
2024/01/14 05:32:25;;;;;;;20.67;8.90;;;2.90;99.90;;;;;;5035748;28;20147;-75
2024/01/14 05:34:51;;;;;;;19.08;6.55;;;2.70;99.90;;;;;;5053477;28;20100;-75
2024/01/14 05:37:18;;;;;;;5.70;2.97;;;2.90;99.90;;;;;;5053722;28;20100;-75
2024/01/14 05:39:44;;;;;;;23.05;10.93;;;3.00;99.90;;;;;;5053305;28;20482;-75
2024/01/14 05:42:09;;;;;;;12.93;7.25;;;2.80;99.90;;;;;;5052086;28;20039;-75
2024/01/14 05:44:35;;;;;;;20.58;8.00;;;2.80;99.90;;;;;;5053358;28;20386;-75
2024/01/14 05:47:01;;;;;;;26.02;13.18;;;2.80;99.90;;;;;;5052992;28;20109;-75
2024/01/14 05:49:27;;;;;;;8.45;6.20;;;2.80;99.90;;;;;;5053433;28;20033;-75
2024/01/14 05:51:53;;;;;;;10.07;3.88;;;3.00;99.90;;;;;;5053204;28;20025;-75
2024/01/14 05:54:19;;;;;;;21.85;8.98;;;2.90;99.90;;;;;;5037335;28;20028;-75
2024/01/14 05:56:45;;;;;;;11.13;6.53;;;2.80;99.90;;;;;;5048032;28;20036;-75
2024/01/14 05:59:11;;;;;;;23.70;6.10;;;2.80;99.90;;;;;;5051321;28;20019;-75
2024/01/14 06:01:37;;;;;;;2.95;2.75;;;2.90;99.90;;;;;;5034780;28;20033;-75
2024/01/14 06:04:03;;;;;;;9.20;4.30;;;3.10;99.90;;;;;;5052886;28;20017;-73
2024/01/14 06:06:29;;;;;;;16.40;7.38;;;3.10;99.90;;;;;;5053008;28;20087;-73
2024/01/14 06:08:55;;;;;;;8.70;5.00;;;3.00;99.90;;;;;;5052775;28;20033;-75
2024/01/14 06:11:20;;;;;;;5.10;2.67;;;2.80;99.90;;;;;;5052761;28;20025;-75
2024/01/14 06:13:46;;;;;;;16.02;7.15;;;2.80;99.90;;;;;;5053193;28;20497;-73
2024/01/14 06:16:12;;;;;;;13.80;7.28;;;2.90;99.90;;;;;;5050943;28;20031;-73
2024/01/14 06:18:40;;;;;;;10.98;4.25;;;2.90;99.90;;;;;;5052931;28;20470;-73
2024/01/14 06:21:06;;;;;;;19.52;6.05;;;2.90;99.90;;;;;;5034906;28;20129;-75
2024/01/14 06:23:32;;;;;;;4.57;2.38;;;2.90;99.90;;;;;;5018581;28;20374;-75
2024/01/14 06:25:58;;;;;;;12.02;6.25;;;2.90;99.90;;;;;;5051634;28;20021;-73
2024/01/14 06:28:25;;;;;;;1.77;1.67;;;3.20;99.90;;;;;;5034952;28;20048;-73
2024/01/14 06:30:51;;;;;;;2.47;2.28;;;3.00;99.90;;;;;;5052505;28;20482;-73
2024/01/14 06:33:17;;;;;;;2.88;2.67;;;2.90;99.90;;;;;;5052626;28;20020;-75
2024/01/14 06:35:43;;;;;;;17.50;8.57;;;2.80;99.90;;;;;;5051541;28;20036;-75
2024/01/14 06:38:09;;;;;;;12.45;6.13;;;2.70;99.90;;;;;;5052397;28;20144;-75
2024/01/14 06:40:35;;;;;;;17.00;7.45;;;2.80;99.90;;;;;;5052743;28;20104;-74
2024/01/14 06:43:01;;;;;;;26.92;12.02;;;2.80;99.90;;;;;;5050887;28;20091;-75
2024/01/14 06:45:27;;;;;;;23.35;10.82;;;2.70;99.90;;;;;;5052801;28;20446;-74
2024/01/14 06:47:53;;;;;;;22.60;9.82;;;2.80;99.90;;;;;;5052549;28;20389;-74
2024/01/14 06:50:18;;;;;;;19.15;4.05;;;2.80;99.90;;;;;;5052279;28;20492;-74
2024/01/14 06:52:44;;;;;;;15.98;6.68;;;2.80;99.90;;;;;;5052564;28;20036;-74
2024/01/14 06:55:14;;;;;;;18.45;9.85;;;2.90;99.90;;;;;;5052632;28;20491;-75
2024/01/14 06:57:40;;;;;;;12.98;5.82;;;2.80;99.90;;;;;;5052312;28;20350;-75
2024/01/14 07:00:08;;;;;;;21.55;6.82;;;2.90;99.90;;;;;;5050905;28;20048;-74
2024/01/14 07:02:34;;;;;;;19.27;9.52;;;2.80;99.90;;;;;;5034643;28;20025;-75
2024/01/14 07:05:00;;;;;;;1.95;1.73;;;2.80;99.90;;;;;;5052625;28;20107;-75
2024/01/14 07:07:27;;;;;;;15.40;7.47;;;2.80;99.90;;;;;;5051987;28;20109;-75
2024/01/14 07:09:53;;;;;;;29.48;12.82;;;2.70;99.90;;;;;;5052232;28;20056;-76
2024/01/14 07:12:19;;;;;;;28.00;12.20;;;2.70;99.90;;;;;;5051949;28;20025;-75
2024/01/14 07:14:44;;;;;;;21.02;8.65;;;2.50;99.90;;;;;;5052951;28;20021;-74
2024/01/14 07:17:10;;;;;;;22.98;6.47;;;2.60;99.90;;;;;;5056097;28;20485;-74
2024/01/14 07:19:36;;;;;;;16.05;6.63;;;2.60;99.90;;;;;;5056269;28;20462;-74
2024/01/14 07:22:04;;;;;;;30.00;12.80;;;2.70;99.90;;;;;;5055914;28;20444;-74
2024/01/14 07:24:33;;;;;;;8.07;4.80;;;2.60;99.90;;;;;;5055032;28;20033;-74
2024/01/14 07:27:01;;;;;;;20.17;9.93;;;2.50;99.90;;;;;;5055860;28;20029;-74
2024/01/14 07:29:28;;;;;;;19.75;1.98;;;2.60;99.90;;;;;;5054619;28;20040;-74
2024/01/14 07:31:55;;;;;;;44.30;9.18;;;2.50;99.90;;;;;;5037982;28;20029;-74
2024/01/14 07:34:21;;;;;;;35.80;13.23;;;2.50;99.90;;;;;;5055963;28;20040;-74
2024/01/14 07:36:47;;;;;;;17.63;8.77;;;2.60;99.90;;;;;;5055827;28;20025;-74
2024/01/14 07:39:12;;;;;;;5.78;5.20;;;2.50;99.90;;;;;;5055838;28;20496;-74
2024/01/14 07:41:39;;;;;;;15.77;4.30;;;2.50;99.90;;;;;;5055424;28;20033;-75
2024/01/14 07:44:11;;;;;;;16.95;7.47;;;2.60;99.90;;;;;;5054581;28;20013;-77
2024/01/14 07:46:36;;;;;;;23.65;10.25;;;2.70;99.90;;;;;;5055307;28;20186;-74
2024/01/14 07:49:02;;;;;;;2.65;2.15;;;2.50;99.90;;;;;;5055576;28;20029;-75
2024/01/14 07:51:28;;;;;;;33.75;13.52;;;2.50;99.90;;;;;;5055676;28;20028;-74
2024/01/14 07:53:54;;;;;;;31.10;14.18;;;2.50;99.90;;;;;;5041564;28;20029;-74
2024/01/14 07:56:20;;;;;;;19.48;7.43;;;2.50;99.90;;;;;;5054924;28;20069;-75
2024/01/14 07:58:46;;;;;;;34.97;11.77;;;2.60;99.90;;;;;;5054657;28;20028;-75
2024/01/14 08:01:12;;;;;;;15.70;6.63;;;2.50;99.90;;;;;;5055367;28;20025;-75
2024/01/14 08:03:38;;;;;;;20.58;9.82;;;2.40;99.90;;;;;;5055247;28;20029;-74
2024/01/14 08:06:04;;;;;;;1.15;1.15;;;2.50;99.90;;;;;;5055515;28;20359;-74
2024/01/14 08:08:34;;;;;;;12.43;5.20;;;2.60;99.90;;;;;;5055099;28;20033;-74
2024/01/14 08:11:00;;;;;;;8.52;3.35;;;2.60;99.90;;;;;;5054800;28;20064;-75
2024/01/14 08:13:26;;;;;;;19.92;5.80;;;2.70;99.90;;;;;;5055168;28;20013;-75
2024/01/14 08:15:52;;;;;;;14.30;7.22;;;2.60;99.90;;;;;;5054962;28;20489;-75
2024/01/14 08:18:19;;;;;;;25.15;8.77;;;2.60;99.90;;;;;;5053881;28;20040;-75
2024/01/14 08:20:47;;;;;;;16.30;5.50;;;2.70;99.90;;;;;;5055152;28;20366;-75
2024/01/14 08:23:13;;;;;;;20.67;7.75;;;2.60;99.90;;;;;;5054674;28;20053;-73
2024/01/14 08:25:39;;;;;;;6.50;3.90;;;2.60;99.90;;;;;;5054849;28;20079;-73
2024/01/14 08:28:05;;;;;;;24.55;9.95;;;2.60;99.90;;;;;;5054840;28;20017;-75
2024/01/14 08:30:31;;;;;;;14.68;2.58;;;2.60;99.90;;;;;;5054702;28;20116;-73
2024/01/14 08:32:57;;;;;;;31.45;14.65;;;2.60;99.90;;;;;;5020174;28;20377;-73
2024/01/14 08:35:24;;;;;;;23.48;8.98;;;2.50;99.90;;;;;;5054914;28;20025;-73
2024/01/14 08:37:50;;;;;;;4.28;2.60;;;2.50;99.90;;;;;;5054515;28;20593;-74
2024/01/14 08:40:17;;;;;;;2.38;1.92;;;2.50;99.90;;;;;;5036550;28;20022;-73
2024/01/14 08:42:44;;;;;;;9.05;3.85;;;2.60;99.90;;;;;;5054545;28;20017;-74
2024/01/14 08:45:11;;;;;;;25.42;11.55;;;2.70;99.90;;;;;;5036729;28;20033;-76
2024/01/14 08:47:38;;;;;;;29.33;13.05;;;2.60;99.90;;;;;;5054517;28;20021;-73
2024/01/14 08:50:07;;;;;;;21.80;8.45;;;2.40;99.90;;;;;;5054224;28;20044;-75
2024/01/14 08:52:33;;;;;;;18.55;6.53;;;2.50;99.90;;;;;;5054373;28;20022;-72
2024/01/14 08:54:59;;;;;;;16.70;2.78;;;2.50;99.90;;;;;;5053988;28;20031;-73
2024/01/14 08:57:28;;;;;;;28.73;8.77;;;2.60;99.90;;;;;;5054320;28;20017;-73
2024/01/14 08:59:54;;;;;;;40.17;14.27;;;2.50;99.90;;;;;;5054273;28;20035;-73
2024/01/14 09:02:20;;;;;;;32.80;13.25;;;2.50;99.90;;;;;;5054079;28;20025;-73
2024/01/14 09:04:45;;;;;;;21.33;5.75;;;2.50;99.90;;;;;;5054095;28;20025;-73
2024/01/14 09:07:12;;;;;;;28.98;12.10;;;2.70;99.90;;;;;;5053961;28;20079;-74
2024/01/14 09:09:38;;;;;;;14.00;4.47;;;2.60;99.90;;;;;;5035870;28;20029;-73
2024/01/14 09:12:03;;;;;;;5.07;3.58;;;2.60;99.90;;;;;;5036748;28;20028;-72
2024/01/14 09:14:31;;;;;;;46.40;19.67;;;2.60;99.90;;;;;;5053895;28;20033;-73
2024/01/14 09:16:57;;;;;;;50.53;20.10;;;2.60;99.90;;;;;;5053856;28;20037;-73
2024/01/14 09:19:23;;;;;;;10.15;3.97;;;2.50;99.90;;;;;;5053671;28;20044;-74
2024/01/14 09:21:49;;;;;;;11.63;4.60;;;2.60;99.90;;;;;;5053908;28;20167;-73
2024/01/14 09:24:15;;;;;;;31.30;10.43;;;2.60;99.90;;;;;;5053627;28;20055;-73
2024/01/14 09:26:40;;;;;;;26.88;11.60;;;2.60;99.90;;;;;;5053502;28;20051;-73
2024/01/14 09:29:06;;;;;;;2.40;1.45;;;2.50;99.90;;;;;;5053585;28;20025;-73
2024/01/14 09:31:32;;;;;;;8.95;5.05;;;2.60;99.90;;;;;;5053651;28;20035;-73
2024/01/14 09:33:58;;;;;;;7.13;5.50;;;2.80;99.90;;;;;;5053130;28;20032;-73
2024/01/14 09:36:26;;;;;;;4.93;3.67;;;2.90;99.90;;;;;;5053287;28;20032;-73
2024/01/14 09:38:52;;;;;;;24.75;8.85;;;3.10;99.90;;;;;;5034992;28;20362;-73
2024/01/14 09:42:00;;;;;;;23.13;11.10;;;3.10;99.90;;;;;;5053365;28;20035;-73
2024/01/14 09:44:26;;;;;;;4.32;3.70;;;2.90;99.90;;;;;;4995313;28;20501;-73
2024/01/14 09:46:52;;;;;;;8.85;5.55;;;2.90;99.90;;;;;;5051171;28;20025;-73
2024/01/14 09:49:20;;;;;;;10.23;5.32;;;3.00;99.90;;;;;;5053327;28;20458;-73
2024/01/14 09:51:49;;;;;;;24.58;11.52;;;2.70;99.90;;;;;;5052746;28;20120;-72
2024/01/14 09:54:21;;;;;;;8.70;4.22;;;2.80;99.90;;;;;;5053224;28;20039;-73
2024/01/14 09:56:50;;;;;;;28.33;12.02;;;2.90;99.90;;;;;;5053043;28;20075;-72
2024/01/14 09:59:17;;;;;;;21.95;9.40;;;3.00;99.90;;;;;;5053157;28;20036;-73
2024/01/14 10:01:45;;;;;;;5.75;4.30;;;2.80;99.90;;;;;;5052817;28;20021;-73
2024/01/14 10:04:12;;;;;;;11.70;3.65;;;2.80;99.90;;;;;;5046577;28;20470;-73
2024/01/14 10:06:43;;;;;;;24.48;10.52;;;2.90;99.90;;;;;;5045698;28;20071;-73
2024/01/14 10:09:09;;;;;;;9.75;4.35;;;3.00;99.90;;;;;;5052711;28;20434;-73
2024/01/14 10:11:35;;;;;;;15.60;8.60;;;3.00;99.90;;;;;;5052535;28;20033;-73
2024/01/14 10:14:02;;;;;;;21.83;10.45;;;2.90;99.90;;;;;;5053081;28;20027;-72
2024/01/14 10:16:28;;;;;;;9.55;5.88;;;2.80;99.90;;;;;;5052493;28;20043;-73
2024/01/14 10:18:55;;;;;;;22.92;6.80;;;2.80;99.90;;;;;;5052939;28;20029;-74
2024/01/14 10:21:21;;;;;;;48.25;18.55;;;2.70;99.90;;;;;;5017671;28;20598;-74
2024/01/14 10:23:50;;;;;;;14.68;7.32;;;2.80;99.90;;;;;;5053195;28;20350;-74
2024/01/14 10:26:21;;;;;;;23.33;9.40;;;2.90;99.90;;;;;;5052686;28;20025;-73
2024/01/14 10:28:47;;;;;;;33.13;15.85;;;2.90;99.90;;;;;;5052763;28;20492;-74
2024/01/14 10:31:12;;;;;;;5.88;3.50;;;2.70;99.90;;;;;;5052485;28;20032;-73
2024/01/14 10:33:38;;;;;;;24.00;11.95;;;2.80;99.90;;;;;;5052626;28;20033;-75
2024/01/14 10:36:11;;;;;;;28.38;11.52;;;2.90;99.90;;;;;;5052118;28;20056;-73
2024/01/14 10:38:37;;;;;;;30.73;11.98;;;2.80;99.90;;;;;;5052725;28;20025;-73
2024/01/14 10:41:04;;;;;;;5.50;3.53;;;2.80;99.90;;;;;;5034560;28;20123;-73
2024/01/14 10:43:32;;;;;;;6.40;2.30;;;2.90;99.90;;;;;;5052518;28;20377;-73
2024/01/14 10:46:00;;;;;;;15.02;5.65;;;2.90;99.90;;;;;;5034519;28;20063;-73
2024/01/14 10:48:27;;;;;;;17.92;9.40;;;2.90;99.90;;;;;;5052379;28;20433;-73
2024/01/14 10:51:00;;;;;;;35.83;12.98;;;3.00;99.90;;;;;;5051173;28;20057;-73
2024/01/14 10:53:34;;;;;;;8.77;5.82;;;3.00;99.90;;;;;;5052246;28;20032;-73
2024/01/14 10:56:05;;;;;;;19.30;8.23;;;3.20;99.90;;;;;;5052465;28;20037;-73
2024/01/14 10:58:35;;;;;;;16.27;4.50;;;3.20;99.90;;;;;;5052136;28;20049;-73
2024/01/14 11:01:06;;;;;;;16.20;4.20;;;3.20;99.90;;;;;;5052118;28;20079;-73
2024/01/14 11:03:33;;;;;;;2.28;1.30;;;3.00;99.90;;;;;;5052351;28;20029;-73
2024/01/14 11:05:59;;;;;;;28.50;11.30;;;3.00;99.90;;;;;;5051825;28;20616;-73
2024/01/14 11:08:30;;;;;;;5.97;4.10;;;3.10;99.90;;;;;;5052286;28;20029;-73
2024/01/14 11:10:57;;;;;;;25.73;8.83;;;3.00;99.90;;;;;;5052411;28;20049;-73
2024/01/14 11:13:45;;;;;;;20.80;7.63;;;3.10;99.90;;;;;;5052441;28;20446;-73
2024/01/14 11:16:28;;;;;;;24.08;11.35;;;3.10;99.90;;;;;;5051838;28;20451;-73
2024/01/14 11:18:54;;;;;;;28.52;11.30;;;2.90;99.90;;;;;;5051733;28;20033;-73
2024/01/14 11:21:44;;;;;;;28.52;6.07;;;3.00;99.90;;;;;;5050722;28;20477;-73
2024/01/14 11:24:10;;;;;;;19.90;9.55;;;3.00;99.90;;;;;;5052390;28;20386;-73
2024/01/14 11:26:37;;;;;;;24.75;10.63;;;2.90;99.90;;;;;;5051935;28;20052;-73
2024/01/14 11:29:03;;;;;;;7.55;6.30;;;3.00;99.90;;;;;;5051953;28;20052;-73
2024/01/14 11:32:08;;;;;;;41.28;14.52;;;2.90;99.90;;;;;;5051913;28;20032;-73
2024/01/14 11:34:46;;;;;;;33.08;15.90;;;3.00;99.90;;;;;;4951707;29;20118;-73
2024/01/14 11:37:37;;;;;;;5.82;3.03;;;2.90;99.90;;;;;;4935966;29;20415;-72
2024/01/14 11:40:09;;;;;;;30.52;10.52;;;3.10;99.90;;;;;;5014094;28;20037;-72
2024/01/14 11:42:45;;;;;;;4.95;3.40;;;3.00;99.90;;;;;;5051828;28;20423;-72
2024/01/14 11:45:32;;;;;;;28.80;8.07;;;3.10;99.90;;;;;;5051716;28;20486;-72
2024/01/14 11:48:03;;;;;;;2.17;1.63;;;3.00;99.90;;;;;;5051544;28;20108;-73
2024/01/14 11:50:31;;;;;;;17.40;7.63;;;3.10;99.90;;;;;;5051649;28;20482;-72
2024/01/14 11:52:58;;;;;;;14.02;4.55;;;3.00;99.90;;;;;;5051832;28;20036;-72
2024/01/14 11:55:25;;;;;;;17.25;9.48;;;3.10;99.90;;;;;;5051773;28;20163;-72
2024/01/14 11:57:52;;;;;;;11.02;4.18;;;3.10;99.90;;;;;;5033834;28;20060;-72
2024/01/14 12:00:24;;;;;;;2.42;2.17;;;2.90;99.90;;;;;;5051834;28;20061;-72
2024/01/14 12:03:15;;;;;;;17.45;8.35;;;3.10;99.90;;;;;;5055185;28;20025;-72
2024/01/14 12:05:42;;;;;;;14.13;5.50;;;3.00;99.90;;;;;;5051536;28;20040;-72
2024/01/14 12:08:13;;;;;;;20.73;8.95;;;2.90;99.90;;;;;;5055278;28;20351;-72
2024/01/14 12:10:40;;;;;;;13.50;7.05;;;2.90;99.90;;;;;;5055059;28;20039;-72
2024/01/14 12:13:07;;;;;;;7.93;3.67;;;3.00;99.90;;;;;;5037373;28;20474;-72
2024/01/14 12:15:33;;;;;;;6.43;2.78;;;2.90;99.90;;;;;;5055133;28;20456;-72
2024/01/14 12:18:00;;;;;;;4.65;3.08;;;3.00;99.90;;;;;;5054533;28;20087;-72
2024/01/14 12:20:27;;;;;;;18.35;7.28;;;3.10;99.90;;;;;;5055202;28;20035;-72
2024/01/14 12:22:58;;;;;;;16.80;8.73;;;2.90;99.90;;;;;;5054706;28;20419;-72
2024/01/14 12:25:24;;;;;;;28.90;11.93;;;2.90;99.90;;;;;;5020633;28;20138;-72
2024/01/14 12:27:50;;;;;;;11.07;5.38;;;2.90;99.90;;;;;;5054677;28;20409;-72
2024/01/14 12:30:30;;;;;;;21.98;8.05;;;2.90;99.90;;;;;;5055242;28;20028;-72
2024/01/14 12:32:57;;;;;;;21.70;8.60;;;2.80;99.90;;;;;;5036526;28;20035;-72
2024/01/14 12:35:34;;;;;;;15.40;5.15;;;2.80;99.90;;;;;;5054784;28;20462;-72
2024/01/14 12:38:01;;;;;;;13.75;6.28;;;2.80;99.90;;;;;;5036398;28;20477;-72
2024/01/14 12:40:31;;;;;;;24.70;10.90;;;2.90;99.90;;;;;;5036841;28;20040;-72
2024/01/14 12:42:57;;;;;;;18.15;8.43;;;2.80;99.90;;;;;;5054517;28;20033;-72
2024/01/14 12:45:23;;;;;;;35.15;13.82;;;2.80;99.90;;;;;;5052832;28;20029;-72
2024/01/14 12:47:59;;;;;;;8.95;6.25;;;2.90;99.90;;;;;;5054441;28;20048;-74
2024/01/14 12:50:29;;;;;;;1.55;0.40;;;2.90;99.90;;;;;;5054118;28;20616;-74